Kosei Maru — JD2378 — position and weather

sailwx.info

Track history (hours):
 
Tides and Currents Weather Stations Pressure Air Temp Water Temp Dewpoint Dewpoint Depression Visibility Wind Speed Wind Dir Waves Ship Positions

Kosei Maru

Last reported at 2017-Sep-21 15:46 UTC. Time now 2017-Sep-23 07:18 UTC.
Position N 34°58' E 139°20'.

Length 75 m; draft 4.5 m.

Type: Tanker. MMSI: 431000156.

Date/timePositionNaut miles runAvg speedWind from/ knotsBaromVisibWave heightAir tempDewpointWater temp
2017-Sep-21 15:46N 34°58' E 139°20'311.9
2017-Sep-21 15:30N 34°59' E 139°23'612.2
2017-Sep-21 15:00N 35°02' E 139°30'713.1
2017-Sep-21 14:30N 35°05' E 139°37'713.7
2017-Sep-21 14:00N 35°09' E 139°44'713.3
2017-Sep-21 13:30N 35°15' E 139°46'612.9
2017-Sep-21 13:00N 35°21' E 139°42'713.1
2017-Sep-21 12:30N 35°27' E 139°46'5 9.2
2017-Sep-21 12:00N 35°31' E 139°46'0 0.3
2017-Sep-21 11:29N 35°32' E 139°46'0 0.0
2017-Sep-21 10:44N 35°32' E 139°46'0 0.0
2017-Sep-21 10:31N 35°32' E 139°46'0 0.0
2017-Sep-21 10:01N 35°32' E 139°46'0 0.0
2017-Sep-21 09:30N 35°32' E 139°46'0 0.0
2017-Sep-21 09:00N 35°32' E 139°46'0 0.0
2017-Sep-21 08:31N 35°32' E 139°46'0 0.0
2017-Sep-21 08:01N 35°32' E 139°46'0 0.0
2017-Sep-21 07:31N 35°32' E 139°46'0 0.0
2017-Sep-21 07:01N 35°32' E 139°46'2 3.9
2017-Sep-21 06:30N 35°30' E 139°48'2 3.6
2017-Sep-21 06:01N 35°29' E 139°49'0 0.0
2017-Sep-21 05:31N 35°29' E 139°49'0 0.0
2017-Sep-21 05:01N 35°29' E 139°49'0 0.1
2017-Sep-21 04:31N 35°29' E 139°49'0 0.0
2017-Sep-21 04:00N 35°29' E 139°49'510.6
2017-Sep-21 03:30N 35°24' E 139°46'611.8
2017-Sep-21 03:00N 35°18' E 139°45'612.0
2017-Sep-21 02:30N 35°12' E 139°47'612.8
2017-Sep-21 02:00N 35°06' E 139°44'713.6
2017-Sep-21 01:30N 35°02' E 139°38'23712.2
2017-Sep-20 06:01N 34°04' E 134°59'114.2
2017-Sep-20 05:55N 34°05' E 134°59'614.5
2017-Sep-20 05:30N 34°11' E 134°59'1913.9
2017-Sep-20 04:06N 34°28' E 135°11'214.3
2017-Sep-20 03:58N 34°29' E 135°13'613.9
2017-Sep-20 03:30N 34°32' E 135°20'510.0
2017-Sep-20 03:00N 34°33' E 135°26'0 0.0
2017-Sep-20 02:30N 34°33' E 135°26'0 0.0
2017-Sep-20 02:00N 34°33' E 135°26'0 0.0
2017-Sep-20 01:30N 34°33' E 135°26'0 0.0
2017-Sep-20 01:00N 34°33' E 135°26'0 0.0
2017-Sep-20 00:30N 34°33' E 135°26'0 0.0
2017-Sep-20 00:00N 34°33' E 135°26'0 0.0
2017-Sep-19 23:30N 34°33' E 135°26'0 0.0
2017-Sep-19 23:00N 34°33' E 135°26'0 0.0
2017-Sep-19 22:30N 34°33' E 135°26'1 2.2
2017-Sep-19 22:00N 34°33' E 135°24'4 6.8
2017-Sep-19 21:25N 34°32' E 135°20'0 0.0
2017-Sep-19 20:55N 34°32' E 135°20'0 0.0
2017-Sep-19 20:07N 34°32' E 135°20'0 0.0
2017-Sep-19 19:49N 34°32' E 135°20'0 0.0
2017-Sep-19 19:25N 34°32' E 135°20'0 0.0
2017-Sep-19 18:13N 34°32' E 135°20'0 0.0
2017-Sep-19 17:49N 34°32' E 135°20'0 0.0
2017-Sep-19 17:19N 34°32' E 135°20'0 0.1
2017-Sep-19 16:43N 34°32' E 135°20'0 0.1
2017-Sep-19 16:19N 34°32' E 135°20'1 2.8
2017-Sep-19 16:00N 34°32' E 135°19'713.2
2017-Sep-19 15:30N 34°27' E 135°13'712.8
2017-Sep-19 14:59N 34°23' E 135°07'1111.8
2017-Sep-19 14:04N 34°14' E 134°60'113.4
2017-Sep-19 14:00N 34°13' E 134°60'22810.3
2017-Sep-18 15:58N 35°01' E 139°30'613.4
2017-Sep-18 15:31N 35°04' E 139°37'713.9
2017-Sep-18 15:01N 35°09' E 139°44'713.2
2017-Sep-18 14:31N 35°15' E 139°46'712.9
2017-Sep-18 14:00N 35°20' E 139°42'612.5
2017-Sep-18 13:30N 35°26' E 139°46'612.0
2017-Sep-18 13:01N 35°31' E 139°50'0 0.1
2017-Sep-18 12:30N 35°31' E 139°50'0 0.0
2017-Sep-18 11:58N 35°31' E 139°50'0 0.1
2017-Sep-18 11:28N 35°31' E 139°50'0 0.0
2017-Sep-18 10:58N 35°31' E 139°50'0 0.0
2017-Sep-18 10:28N 35°31' E 139°50'0 0.0
2017-Sep-18 09:58N 35°31' E 139°50'0 0.1
2017-Sep-18 09:28N 35°31' E 139°50'0 0.1
2017-Sep-18 08:58N 35°31' E 139°50'0 0.1
2017-Sep-18 08:28N 35°31' E 139°50'0 0.0
2017-Sep-18 07:58N 35°31' E 139°50'0 0.0
2017-Sep-18 07:28N 35°31' E 139°50'0 0.0
2017-Sep-18 06:58N 35°31' E 139°50'0 0.0
2017-Sep-18 06:28N 35°31' E 139°50'0 0.0
2017-Sep-18 05:57N 35°31' E 139°50'0 0.0
2017-Sep-18 05:29N 35°31' E 139°50'0 0.0
2017-Sep-18 04:58N 35°31' E 139°50'0 0.0
2017-Sep-18 04:30N 35°31' E 139°50'0 0.1
2017-Sep-18 03:59N 35°31' E 139°50'0 0.0
2017-Sep-18 03:30N 35°31' E 139°50'0 0.0
2017-Sep-18 03:00N 35°31' E 139°50'0 0.0
2017-Sep-18 02:30N 35°31' E 139°50'0 0.0
2017-Sep-18 02:00N 35°31' E 139°50'0 0.0
2017-Sep-18 01:30N 35°31' E 139°50'0 0.0
2017-Sep-18 00:59N 35°31' E 139°50'0 0.0
2017-Sep-18 00:27N 35°31' E 139°50'0 0.0
2017-Sep-17 23:58N 35°31' E 139°50'0 0.0
2017-Sep-17 23:30N 35°31' E 139°50'0 0.0
2017-Sep-17 22:51N 35°31' E 139°50'0 0.0
2017-Sep-17 22:30N 35°31' E 139°50'0 0.0
2017-Sep-17 22:01N 35°31' E 139°50'0 0.0
2017-Sep-17 21:26N 35°31' E 139°50'0 0.1
2017-Sep-17 20:58N 35°31' E 139°50'0 0.0
2017-Sep-17 20:27N 35°31' E 139°50'0 0.0
2017-Sep-17 19:59N 35°31' E 139°50'0 0.0
2017-Sep-17 19:30N 35°31' E 139°50'0 0.0
2017-Sep-17 19:00N 35°31' E 139°50'0 0.0
2017-Sep-17 18:30N 35°31' E 139°50'0 0.0
2017-Sep-17 18:00N 35°31' E 139°50'0 0.0
2017-Sep-17 17:30N 35°31' E 139°50'0 0.0
2017-Sep-17 17:00N 35°31' E 139°50'0 0.1
2017-Sep-17 16:29N 35°31' E 139°50'0 0.1
2017-Sep-17 15:59N 35°31' E 139°50'0 0.2
2017-Sep-17 15:29N 35°31' E 139°50'0 0.1
2017-Sep-17 14:55N 35°31' E 139°50'0 0.1
2017-Sep-17 14:30N 35°31' E 139°50'0 0.1
2017-Sep-17 13:58N 35°31' E 139°50'0 0.1
2017-Sep-17 13:30N 35°31' E 139°50'0 0.1
2017-Sep-17 12:56N 35°31' E 139°50'0 0.1
2017-Sep-17 12:19N 35°31' E 139°50'0 0.0
2017-Sep-17 11:58N 35°31' E 139°50'0 0.1
2017-Sep-17 11:28N 35°31' E 139°50'0 0.1
2017-Sep-17 10:58N 35°31' E 139°50'0 0.0
2017-Sep-17 10:28N 35°31' E 139°50'0 0.0
2017-Sep-17 09:52N 35°31' E 139°50'0 0.1
2017-Sep-17 09:28N 35°31' E 139°50'0 0.0
2017-Sep-17 08:55N 35°31' E 139°50'0 0.1
2017-Sep-17 08:19N 35°31' E 139°50'0 0.0
2017-Sep-17 07:37N 35°31' E 139°50'0 0.0
2017-Sep-17 07:19N 35°31' E 139°50'0 0.0
2017-Sep-17 06:55N 35°31' E 139°50'0 0.0
2017-Sep-17 06:22N 35°31' E 139°50'0 0.0
2017-Sep-17 05:55N 35°31' E 139°50'0 0.0
2017-Sep-17 05:28N 35°31' E 139°50'0 0.0
2017-Sep-17 04:58N 35°31' E 139°50'0 0.0
2017-Sep-17 04:28N 35°31' E 139°50'0 0.0
2017-Sep-17 03:55N 35°31' E 139°50'1 3.1
2017-Sep-17 03:30N 35°30' E 139°49'3 6.0
2017-Sep-17 03:00N 35°32' E 139°46'0 0.0
2017-Sep-17 02:30N 35°32' E 139°46'0 0.0
2017-Sep-17 02:00N 35°32' E 139°46'0 0.0
2017-Sep-17 01:30N 35°32' E 139°46'0 0.0
2017-Sep-17 01:00N 35°32' E 139°46'0 0.0
2017-Sep-17 00:30N 35°32' E 139°46'0 0.0
2017-Sep-17 00:00N 35°32' E 139°46'0 0.0
2017-Sep-16 23:30N 35°32' E 139°46'0 0.0
2017-Sep-16 23:00N 35°32' E 139°46'0 0.3
2017-Sep-16 22:30N 35°31' E 139°46'3 5.4
2017-Sep-16 22:01N 35°30' E 139°48'0 0.4
2017-Sep-16 21:30N 35°30' E 139°48'1 1.9
2017-Sep-16 21:00N 35°29' E 139°48'0 0.0
2017-Sep-16 20:29N 35°29' E 139°48'0 0.0
2017-Sep-16 19:59N 35°29' E 139°48'0 0.0
2017-Sep-16 19:29N 35°29' E 139°48'0 0.0
2017-Sep-16 18:59N 35°29' E 139°48'0 0.0
2017-Sep-16 18:29N 35°29' E 139°48'0 0.0
2017-Sep-16 17:59N 35°29' E 139°48'0 0.0
2017-Sep-16 17:29N 35°29' E 139°48'0 0.0
2017-Sep-16 16:59N 35°29' E 139°48'0 0.0
2017-Sep-16 16:29N 35°29' E 139°48'0 0.0
2017-Sep-16 15:59N 35°29' E 139°48'0 0.0
2017-Sep-16 15:29N 35°29' E 139°48'0 0.0
2017-Sep-16 14:59N 35°29' E 139°48'0 0.0
2017-Sep-16 14:29N 35°29' E 139°48'0 0.0
2017-Sep-16 13:59N 35°29' E 139°48'0 0.0
2017-Sep-16 13:29N 35°29' E 139°48'0 0.0
2017-Sep-16 12:59N 35°29' E 139°48'0 0.0
2017-Sep-16 12:29N 35°29' E 139°48'0 0.0
2017-Sep-16 11:59N 35°29' E 139°48'1 1.8
2017-Sep-16 11:30N 35°28' E 139°48'713.0
2017-Sep-16 11:00N 35°22' E 139°45'611.6
2017-Sep-16 10:30N 35°16' E 139°46'612.5
2017-Sep-16 10:00N 35°10' E 139°46'613.1
2017-Sep-16 09:30N 35°05' E 139°42'713.9
2017-Sep-16 09:00N 35°00' E 139°35'226 4.4
2017-Sep-14 05:53N 34°37' E 135°01'514.7
2017-Sep-14 05:30N 34°35' E 135°07'713.2
2017-Sep-14 04:59N 34°34' E 135°15'613.0
2017-Sep-14 04:29N 34°33' E 135°23'2 0.3
2017-Sep-13 22:45N 34°32' E 135°25'1 0.0
2017-Sep-13 05:01N 34°31' E 135°25'0 0.5
2017-Sep-13 05:00N 34°31' E 135°25'3 6.4
2017-Sep-13 04:30N 34°33' E 135°22'713.9
2017-Sep-13 04:00N 34°34' E 135°13'714.2
2017-Sep-13 03:30N 34°35' E 135°05'  
Track history (hours):
 
Tides and Currents Weather Stations Pressure Air Temp Water Temp Dewpoint Dewpoint Depression Visibility Wind Speed Wind Dir Waves Ship Positions

Kosei Maru

Last reported at 2017-Sep-21 15:46 UTC. Time now 2017-Sep-23 07:18 UTC.
Position N 34°58' E 139°20'.

Length 75 m; draft 4.5 m.

Type: Tanker. MMSI: 431000156.

Date/timePositionNaut miles runAvg speedWind from/ knotsBaromVisibWave heightAir tempDewpointWater temp
2017-Sep-21 15:46N 34°58' E 139°20'311.9
2017-Sep-21 15:30N 34°59' E 139°23'612.2
2017-Sep-21 15:00N 35°02' E 139°30'713.1
2017-Sep-21 14:30N 35°05' E 139°37'713.7
2017-Sep-21 14:00N 35°09' E 139°44'713.3
2017-Sep-21 13:30N 35°15' E 139°46'612.9
2017-Sep-21 13:00N 35°21' E 139°42'713.1
2017-Sep-21 12:30N 35°27' E 139°46'5 9.2
2017-Sep-21 12:00N 35°31' E 139°46'0 0.3
2017-Sep-21 11:29N 35°32' E 139°46'0 0.0
2017-Sep-21 10:44N 35°32' E 139°46'0 0.0
2017-Sep-21 10:31N 35°32' E 139°46'0 0.0
2017-Sep-21 10:01N 35°32' E 139°46'0 0.0
2017-Sep-21 09:30N 35°32' E 139°46'0 0.0
2017-Sep-21 09:00N 35°32' E 139°46'0 0.0
2017-Sep-21 08:31N 35°32' E 139°46'0 0.0
2017-Sep-21 08:01N 35°32' E 139°46'0 0.0
2017-Sep-21 07:31N 35°32' E 139°46'0 0.0
2017-Sep-21 07:01N 35°32' E 139°46'2 3.9
2017-Sep-21 06:30N 35°30' E 139°48'2 3.6
2017-Sep-21 06:01N 35°29' E 139°49'0 0.0
2017-Sep-21 05:31N 35°29' E 139°49'0 0.0
2017-Sep-21 05:01N 35°29' E 139°49'0 0.1
2017-Sep-21 04:31N 35°29' E 139°49'0 0.0
2017-Sep-21 04:00N 35°29' E 139°49'510.6
2017-Sep-21 03:30N 35°24' E 139°46'611.8
2017-Sep-21 03:00N 35°18' E 139°45'612.0
2017-Sep-21 02:30N 35°12' E 139°47'612.8
2017-Sep-21 02:00N 35°06' E 139°44'713.6
2017-Sep-21 01:30N 35°02' E 139°38'23712.2
2017-Sep-20 06:01N 34°04' E 134°59'114.2
2017-Sep-20 05:55N 34°05' E 134°59'614.5
2017-Sep-20 05:30N 34°11' E 134°59'1913.9
2017-Sep-20 04:06N 34°28' E 135°11'214.3
2017-Sep-20 03:58N 34°29' E 135°13'613.9
2017-Sep-20 03:30N 34°32' E 135°20'510.0
2017-Sep-20 03:00N 34°33' E 135°26'0 0.0
2017-Sep-20 02:30N 34°33' E 135°26'0 0.0
2017-Sep-20 02:00N 34°33' E 135°26'0 0.0
2017-Sep-20 01:30N 34°33' E 135°26'0 0.0
2017-Sep-20 01:00N 34°33' E 135°26'0 0.0
2017-Sep-20 00:30N 34°33' E 135°26'0 0.0
2017-Sep-20 00:00N 34°33' E 135°26'0 0.0
2017-Sep-19 23:30N 34°33' E 135°26'0 0.0
2017-Sep-19 23:00N 34°33' E 135°26'0 0.0
2017-Sep-19 22:30N 34°33' E 135°26'1 2.2
2017-Sep-19 22:00N 34°33' E 135°24'4 6.8
2017-Sep-19 21:25N 34°32' E 135°20'0 0.0
2017-Sep-19 20:55N 34°32' E 135°20'0 0.0
2017-Sep-19 20:07N 34°32' E 135°20'0 0.0
2017-Sep-19 19:49N 34°32' E 135°20'0 0.0
2017-Sep-19 19:25N 34°32' E 135°20'0 0.0
2017-Sep-19 18:13N 34°32' E 135°20'0 0.0
2017-Sep-19 17:49N 34°32' E 135°20'0 0.0
2017-Sep-19 17:19N 34°32' E 135°20'0 0.1
2017-Sep-19 16:43N 34°32' E 135°20'0 0.1
2017-Sep-19 16:19N 34°32' E 135°20'1 2.8
2017-Sep-19 16:00N 34°32' E 135°19'713.2
2017-Sep-19 15:30N 34°27' E 135°13'712.8
2017-Sep-19 14:59N 34°23' E 135°07'1111.8
2017-Sep-19 14:04N 34°14' E 134°60'113.4
2017-Sep-19 14:00N 34°13' E 134°60'22810.3
2017-Sep-18 15:58N 35°01' E 139°30'613.4
2017-Sep-18 15:31N 35°04' E 139°37'713.9
2017-Sep-18 15:01N 35°09' E 139°44'713.2
2017-Sep-18 14:31N 35°15' E 139°46'712.9
2017-Sep-18 14:00N 35°20' E 139°42'612.5
2017-Sep-18 13:30N 35°26' E 139°46'612.0
2017-Sep-18 13:01N 35°31' E 139°50'0 0.1
2017-Sep-18 12:30N 35°31' E 139°50'0 0.0
2017-Sep-18 11:58N 35°31' E 139°50'0 0.1
2017-Sep-18 11:28N 35°31' E 139°50'0 0.0
2017-Sep-18 10:58N 35°31' E 139°50'0 0.0
2017-Sep-18 10:28N 35°31' E 139°50'0 0.0
2017-Sep-18 09:58N 35°31' E 139°50'0 0.1
2017-Sep-18 09:28N 35°31' E 139°50'0 0.1
2017-Sep-18 08:58N 35°31' E 139°50'0 0.1
2017-Sep-18 08:28N 35°31' E 139°50'0 0.0
2017-Sep-18 07:58N 35°31' E 139°50'0 0.0
2017-Sep-18 07:28N 35°31' E 139°50'0 0.0
2017-Sep-18 06:58N 35°31' E 139°50'0 0.0
2017-Sep-18 06:28N 35°31' E 139°50'0 0.0
2017-Sep-18 05:57N 35°31' E 139°50'0 0.0
2017-Sep-18 05:29N 35°31' E 139°50'0 0.0
2017-Sep-18 04:58N 35°31' E 139°50'0 0.0
2017-Sep-18 04:30N 35°31' E 139°50'0 0.1
2017-Sep-18 03:59N 35°31' E 139°50'0 0.0
2017-Sep-18 03:30N 35°31' E 139°50'0 0.0
2017-Sep-18 03:00N 35°31' E 139°50'0 0.0
2017-Sep-18 02:30N 35°31' E 139°50'0 0.0
2017-Sep-18 02:00N 35°31' E 139°50'0 0.0
2017-Sep-18 01:30N 35°31' E 139°50'0 0.0
2017-Sep-18 00:59N 35°31' E 139°50'0 0.0
2017-Sep-18 00:27N 35°31' E 139°50'0 0.0
2017-Sep-17 23:58N 35°31' E 139°50'0 0.0
2017-Sep-17 23:30N 35°31' E 139°50'0 0.0
2017-Sep-17 22:51N 35°31' E 139°50'0 0.0
2017-Sep-17 22:30N 35°31' E 139°50'0 0.0
2017-Sep-17 22:01N 35°31' E 139°50'0 0.0
2017-Sep-17 21:26N 35°31' E 139°50'0 0.1
2017-Sep-17 20:58N 35°31' E 139°50'0 0.0
2017-Sep-17 20:27N 35°31' E 139°50'0 0.0
2017-Sep-17 19:59N 35°31' E 139°50'0 0.0
2017-Sep-17 19:30N 35°31' E 139°50'0 0.0
2017-Sep-17 19:00N 35°31' E 139°50'0 0.0
2017-Sep-17 18:30N 35°31' E 139°50'0 0.0
2017-Sep-17 18:00N 35°31' E 139°50'0 0.0
2017-Sep-17 17:30N 35°31' E 139°50'0 0.0
2017-Sep-17 17:00N 35°31' E 139°50'0 0.1
2017-Sep-17 16:29N 35°31' E 139°50'0 0.1
2017-Sep-17 15:59N 35°31' E 139°50'0 0.2
2017-Sep-17 15:29N 35°31' E 139°50'0 0.1
2017-Sep-17 14:55N 35°31' E 139°50'0 0.1
2017-Sep-17 14:30N 35°31' E 139°50'0 0.1
2017-Sep-17 13:58N 35°31' E 139°50'0 0.1
2017-Sep-17 13:30N 35°31' E 139°50'0 0.1
2017-Sep-17 12:56N 35°31' E 139°50'0 0.1
2017-Sep-17 12:19N 35°31' E 139°50'0 0.0
2017-Sep-17 11:58N 35°31' E 139°50'0 0.1
2017-Sep-17 11:28N 35°31' E 139°50'0 0.1
2017-Sep-17 10:58N 35°31' E 139°50'0 0.0
2017-Sep-17 10:28N 35°31' E 139°50'0 0.0
2017-Sep-17 09:52N 35°31' E 139°50'0 0.1
2017-Sep-17 09:28N 35°31' E 139°50'0 0.0
2017-Sep-17 08:55N 35°31' E 139°50'0 0.1
2017-Sep-17 08:19N 35°31' E 139°50'0 0.0
2017-Sep-17 07:37N 35°31' E 139°50'0 0.0
2017-Sep-17 07:19N 35°31' E 139°50'0 0.0
2017-Sep-17 06:55N 35°31' E 139°50'0 0.0
2017-Sep-17 06:22N 35°31' E 139°50'0 0.0
2017-Sep-17 05:55N 35°31' E 139°50'0 0.0
2017-Sep-17 05:28N 35°31' E 139°50'0 0.0
2017-Sep-17 04:58N 35°31' E 139°50'0 0.0
2017-Sep-17 04:28N 35°31' E 139°50'0 0.0
2017-Sep-17 03:55N 35°31' E 139°50'1 3.1
2017-Sep-17 03:30N 35°30' E 139°49'3 6.0
2017-Sep-17 03:00N 35°32' E 139°46'0 0.0
2017-Sep-17 02:30N 35°32' E 139°46'0 0.0
2017-Sep-17 02:00N 35°32' E 139°46'0 0.0
2017-Sep-17 01:30N 35°32' E 139°46'0 0.0
2017-Sep-17 01:00N 35°32' E 139°46'0 0.0
2017-Sep-17 00:30N 35°32' E 139°46'0 0.0
2017-Sep-17 00:00N 35°32' E 139°46'0 0.0
2017-Sep-16 23:30N 35°32' E 139°46'0 0.0
2017-Sep-16 23:00N 35°32' E 139°46'0 0.3
2017-Sep-16 22:30N 35°31' E 139°46'3 5.4
2017-Sep-16 22:01N 35°30' E 139°48'0 0.4
2017-Sep-16 21:30N 35°30' E 139°48'1 1.9
2017-Sep-16 21:00N 35°29' E 139°48'0 0.0
2017-Sep-16 20:29N 35°29' E 139°48'0 0.0
2017-Sep-16 19:59N 35°29' E 139°48'0 0.0
2017-Sep-16 19:29N 35°29' E 139°48'0 0.0
2017-Sep-16 18:59N 35°29' E 139°48'0 0.0
2017-Sep-16 18:29N 35°29' E 139°48'0 0.0
2017-Sep-16 17:59N 35°29' E 139°48'0 0.0
2017-Sep-16 17:29N 35°29' E 139°48'0 0.0
2017-Sep-16 16:59N 35°29' E 139°48'0 0.0
2017-Sep-16 16:29N 35°29' E 139°48'0 0.0
2017-Sep-16 15:59N 35°29' E 139°48'0 0.0
2017-Sep-16 15:29N 35°29' E 139°48'0 0.0
2017-Sep-16 14:59N 35°29' E 139°48'0 0.0
2017-Sep-16 14:29N 35°29' E 139°48'0 0.0
2017-Sep-16 13:59N 35°29' E 139°48'0 0.0
2017-Sep-16 13:29N 35°29' E 139°48'0 0.0
2017-Sep-16 12:59N 35°29' E 139°48'0 0.0
2017-Sep-16 12:29N 35°29' E 139°48'0 0.0
2017-Sep-16 11:59N 35°29' E 139°48'1 1.8
2017-Sep-16 11:30N 35°28' E 139°48'713.0
2017-Sep-16 11:00N 35°22' E 139°45'611.6
2017-Sep-16 10:30N 35°16' E 139°46'612.5
2017-Sep-16 10:00N 35°10' E 139°46'613.1
2017-Sep-16 09:30N 35°05' E 139°42'713.9
2017-Sep-16 09:00N 35°00' E 139°35'226 4.4
2017-Sep-14 05:53N 34°37' E 135°01'514.7
2017-Sep-14 05:30N 34°35' E 135°07'713.2
2017-Sep-14 04:59N 34°34' E 135°15'613.0
2017-Sep-14 04:29N 34°33' E 135°23'2 0.3
2017-Sep-13 22:45N 34°32' E 135°25'1 0.0
2017-Sep-13 05:01N 34°31' E 135°25'0 0.5
2017-Sep-13 05:00N 34°31' E 135°25'3 6.4
2017-Sep-13 04:30N 34°33' E 135°22'713.9
2017-Sep-13 04:00N 34°34' E 135°13'714.2
2017-Sep-13 03:30N 34°35' E 135°05'  

Dump ship's entire track history